createdAt,value
2022-08-14T00:02:06.232Z,63.30
2022-08-14T00:04:41.889Z,63.50
2022-08-14T00:07:14.208Z,63.30
2022-08-14T00:09:55.827Z,63.20
2022-08-14T00:12:37.729Z,63.30
2022-08-14T00:15:17.036Z,63.10
2022-08-14T00:17:47.965Z,63.00
2022-08-14T00:20:30.993Z,62.90
2022-08-14T00:23:14.557Z,62.90
2022-08-14T00:25:53.772Z,62.90
2022-08-14T00:28:35.442Z,63.10
2022-08-14T00:31:17.439Z,62.80
2022-08-14T00:33:51.971Z,62.90
2022-08-14T00:36:37.250Z,62.80
2022-08-14T00:39:18.246Z,62.90
2022-08-14T00:41:47.767Z,62.90
2022-08-14T00:48:34.348Z,63.30
2022-08-14T00:51:09.926Z,62.60
2022-08-14T00:53:40.069Z,62.70
2022-08-14T00:56:14.138Z,62.80
2022-08-14T00:58:45.436Z,62.90
2022-08-14T01:01:21.845Z,63.20
2022-08-14T01:03:52.976Z,63.20
2022-08-14T01:06:21.404Z,63.30
2022-08-14T01:18:23.615Z,63.70
2022-08-14T01:21:11.945Z,63.90
2022-08-14T01:23:47.014Z,63.70
2022-08-14T01:26:23.561Z,64.00
2022-08-14T01:29:05.819Z,64.20
2022-08-14T01:31:41.716Z,64.60
2022-08-14T01:35:17.180Z,65.00
2022-08-14T01:36:57.042Z,65.00
2022-08-14T01:39:24.468Z,65.10
2022-08-14T01:42:01.036Z,65.30
2022-08-14T01:44:33.986Z,65.80
2022-08-14T01:47:21.993Z,66.10
2022-08-14T01:49:59.902Z,66.30
2022-08-14T01:52:57.817Z,66.70
2022-08-14T01:55:32.593Z,66.90
2022-08-14T01:58:19.781Z,67.10
2022-08-14T02:00:55.656Z,67.40
2022-08-14T02:03:31.240Z,67.90
2022-08-14T02:06:04.064Z,68.70
2022-08-14T02:08:53.107Z,68.80
2022-08-14T02:11:25.411Z,69.20
2022-08-14T02:14:14.351Z,69.90
2022-08-14T02:16:54.874Z,70.70
2022-08-14T02:19:26.293Z,71.10
2022-08-14T02:21:59.015Z,71.10
2022-08-14T02:24:38.855Z,71.70
2022-08-14T02:28:24.608Z,72.50
2022-08-14T02:30:00.964Z,72.20
2022-08-14T02:32:37.293Z,72.40
2022-08-14T02:35:13.964Z,72.90
2022-08-14T02:37:48.237Z,73.20
2022-08-14T02:40:32.231Z,73.50
2022-08-14T02:43:05.270Z,73.90
2022-08-14T02:45:38.532Z,73.90
2022-08-14T02:49:01.933Z,74.30
2022-08-14T02:51:14.587Z,74.60
2022-08-14T02:53:45.742Z,75.50
2022-08-14T02:56:30.305Z,75.40
2022-08-14T02:59:09.571Z,75.80
2022-08-14T03:01:43.497Z,76.20
2022-08-14T03:04:20.397Z,76.20
2022-08-14T03:07:06.076Z,76.40
2022-08-14T03:09:34.703Z,76.60
2022-08-14T03:12:27.048Z,77.00
2022-08-14T03:15:16.578Z,77.20
2022-08-14T03:17:56.880Z,77.80
2022-08-14T03:20:30.606Z,77.90
2022-08-14T03:23:03.274Z,78.00
2022-08-14T03:25:37.591Z,78.60
2022-08-14T03:28:14.615Z,78.50
2022-08-14T03:30:59.786Z,79.20
2022-08-14T03:33:38.020Z,78.90
2022-08-14T03:37:39.279Z,79.30
2022-08-14T03:39:12.602Z,79.60
2022-08-14T03:41:43.678Z,79.60
2022-08-14T03:45:19.078Z,79.90
2022-08-14T03:46:59.556Z,80.10
2022-08-14T03:49:30.772Z,80.30
2022-08-14T03:52:00.555Z,80.40
2022-08-14T03:54:29.478Z,80.70
2022-08-14T03:57:02.736Z,81.20
2022-08-14T03:59:35.276Z,81.20
2022-08-14T04:02:09.491Z,81.30
2022-08-14T04:04:54.035Z,81.60
2022-08-14T04:07:22.722Z,82.10
2022-08-14T04:09:50.541Z,82.20
2022-08-14T04:12:26.209Z,82.20
2022-08-14T04:14:54.291Z,82.70
2022-08-14T04:17:21.623Z,82.90
2022-08-14T04:19:49.846Z,83.10
2022-08-14T04:22:17.277Z,83.50
2022-08-14T04:24:49.555Z,83.50
2022-08-14T04:27:17.198Z,83.50
2022-08-14T04:29:45.441Z,83.80
2022-08-14T04:33:01.566Z,84.10
2022-08-14T04:35:10.437Z,84.40
2022-08-14T04:37:56.854Z,84.50
2022-08-14T04:40:42.772Z,84.70
2022-08-14T04:43:38.247Z,84.90
2022-08-14T04:46:56.823Z,85.40
2022-08-14T04:49:04.000Z,85.50
2022-08-14T04:51:47.003Z,85.80
2022-08-14T04:54:27.088Z,86.40
2022-08-14T04:56:58.523Z,86.90
2022-08-14T04:59:26.964Z,87.30
2022-08-14T05:01:57.105Z,87.60
2022-08-14T05:04:25.239Z,87.80
2022-08-14T05:06:55.486Z,88.00
2022-08-14T05:09:29.354Z,88.60
2022-08-14T05:12:00.607Z,88.90
2022-08-14T05:14:55.197Z,88.90
2022-08-14T05:17:32.076Z,89.10
2022-08-14T05:21:04.934Z,88.90
2022-08-14T05:23:00.087Z,89.00
2022-08-14T05:25:31.926Z,89.20
2022-08-14T05:28:32.108Z,89.40
2022-08-14T05:31:06.974Z,90.20
2022-08-14T05:33:36.742Z,90.00
2022-08-14T05:36:16.650Z,89.90
2022-08-14T05:38:47.609Z,90.10
2022-08-14T05:41:19.446Z,90.10
2022-08-14T05:43:48.344Z,90.20
2022-08-14T05:46:24.003Z,90.10
2022-08-14T05:48:55.371Z,90.30
2022-08-14T05:51:26.481Z,90.10
2022-08-14T05:54:00.089Z,90.20
2022-08-14T05:56:30.171Z,90.20
2022-08-14T05:58:57.682Z,90.20
2022-08-14T06:01:31.485Z,90.20
2022-08-14T06:03:59.529Z,90.20
2022-08-14T06:06:27.476Z,90.20
2022-08-14T06:08:54.788Z,90.10
2022-08-14T06:11:30.519Z,90.10
2022-08-14T06:13:58.781Z,90.10
2022-08-14T06:16:26.110Z,90.10
2022-08-14T06:18:53.492Z,90.10
2022-08-14T06:21:23.050Z,90.10
2022-08-14T06:23:51.442Z,90.20
2022-08-14T06:26:20.573Z,90.10
2022-08-14T06:28:52.131Z,90.10
2022-08-14T06:31:21.280Z,90.00
2022-08-14T06:35:03.352Z,90.00
2022-08-14T06:36:39.458Z,90.00
2022-08-14T06:39:09.952Z,89.80
2022-08-14T06:41:57.607Z,89.80
2022-08-14T06:44:32.268Z,89.60
2022-08-14T06:47:01.952Z,89.30
2022-08-14T06:49:30.277Z,89.10
2022-08-14T06:51:57.977Z,89.20
2022-08-14T06:54:31.705Z,89.10
2022-08-14T06:56:59.331Z,89.00
2022-08-14T06:59:27.053Z,89.10
2022-08-14T07:02:13.271Z,89.40
2022-08-14T07:05:01.211Z,89.40
2022-08-14T07:07:39.298Z,89.40
2022-08-14T07:10:16.762Z,89.30
2022-08-14T07:13:01.471Z,89.20
2022-08-14T07:15:32.519Z,89.20
2022-08-14T07:18:01.729Z,89.00
2022-08-14T07:20:32.071Z,88.90
2022-08-14T07:23:09.267Z,88.80
2022-08-14T07:25:47.856Z,88.00
2022-08-14T07:28:27.251Z,87.40
2022-08-14T07:31:04.627Z,86.00
2022-08-14T07:33:50.356Z,85.10
2022-08-14T07:36:27.748Z,84.40
2022-08-14T07:39:03.044Z,83.50
2022-08-14T07:41:35.574Z,82.00
2022-08-14T07:44:29.214Z,81.30
2022-08-14T07:46:51.468Z,79.70
2022-08-14T07:49:20.314Z,78.40
2022-08-14T07:51:49.615Z,77.20
2022-08-14T07:54:23.705Z,75.90
2022-08-14T07:57:12.235Z,75.30
2022-08-14T07:59:44.679Z,73.40
2022-08-14T08:02:19.318Z,72.70
2022-08-14T08:04:58.877Z,71.30
2022-08-14T08:07:32.084Z,70.30
2022-08-14T08:10:40.641Z,69.90
2022-08-14T08:13:16.709Z,68.40
2022-08-14T08:15:47.587Z,67.60
2022-08-14T08:18:20.583Z,66.40
2022-08-14T08:20:56.035Z,65.70
2022-08-14T08:23:40.063Z,65.20
2022-08-14T08:26:11.156Z,65.10
2022-08-14T08:28:38.292Z,65.20
2022-08-14T08:31:12.900Z,65.70
2022-08-14T08:33:46.973Z,65.90
2022-08-14T08:36:18.670Z,66.00
2022-08-14T08:39:18.019Z,66.40
2022-08-14T08:41:49.538Z,67.20
2022-08-14T08:44:32.982Z,67.60
2022-08-14T08:47:06.667Z,68.10
2022-08-14T08:49:48.404Z,68.30
2022-08-14T08:52:25.509Z,68.20
2022-08-14T08:54:56.552Z,67.70
2022-08-14T08:57:24.407Z,67.30
2022-08-14T09:00:25.414Z,66.50
2022-08-14T09:02:57.690Z,65.10
2022-08-14T09:05:26.283Z,65.00
2022-08-14T09:07:56.650Z,65.10
2022-08-14T09:10:27.098Z,63.50
2022-08-14T09:12:56.405Z,62.30
2022-08-14T09:15:24.239Z,61.40
2022-08-14T09:17:52.554Z,60.20
2022-08-14T09:20:29.395Z,59.10
2022-08-14T09:22:59.860Z,58.60
2022-08-14T09:26:01.250Z,58.20
2022-08-14T09:28:17.145Z,58.00
2022-08-14T09:30:57.716Z,57.70
2022-08-14T09:33:56.652Z,56.40
2022-08-14T09:37:07.402Z,56.50
2022-08-14T09:40:16.779Z,55.70
2022-08-14T09:43:10.315Z,55.50
2022-08-14T09:45:53.526Z,55.80
2022-08-14T09:48:27.488Z,55.90
2022-08-14T09:54:19.312Z,55.20
2022-08-14T09:56:56.792Z,54.10
2022-08-14T09:59:33.460Z,54.20
2022-08-14T10:02:03.374Z,53.90
2022-08-14T10:04:33.720Z,53.90
2022-08-14T10:07:05.270Z,53.60
2022-08-14T10:09:33.578Z,53.20
2022-08-14T10:12:04.368Z,53.00
2022-08-14T10:14:36.606Z,53.10
2022-08-14T10:17:08.513Z,52.50
2022-08-14T10:19:46.985Z,52.20
2022-08-14T10:23:21.874Z,51.90
2022-08-14T10:25:15.595Z,51.90
2022-08-14T10:27:46.807Z,51.40
2022-08-14T10:30:22.370Z,51.70
2022-08-14T10:32:55.540Z,50.90
2022-08-14T10:35:31.748Z,50.70
2022-08-14T10:38:01.484Z,50.40
2022-08-14T10:40:37.790Z,50.70
2022-08-14T10:43:26.790Z,50.50
2022-08-14T10:47:37.009Z,50.60
2022-08-14T10:49:06.496Z,50.70
2022-08-14T10:51:39.712Z,49.80
2022-08-14T10:54:17.177Z,49.50
2022-08-14T10:57:20.461Z,49.20
2022-08-14T11:00:20.767Z,49.70
2022-08-14T11:03:19.904Z,49.40
2022-08-14T11:05:55.582Z,48.90
2022-08-14T11:08:34.297Z,48.30
2022-08-14T11:11:21.138Z,48.20
2022-08-14T11:13:57.524Z,47.80
2022-08-14T11:16:27.035Z,48.00
2022-08-14T11:18:59.732Z,47.90
2022-08-14T11:21:30.341Z,47.90
2022-08-14T11:24:55.048Z,46.30
2022-08-14T11:26:53.604Z,46.80
2022-08-14T11:29:24.578Z,47.60
2022-08-14T11:31:57.014Z,47.20
2022-08-14T11:34:32.199Z,46.70
2022-08-14T11:37:22.948Z,46.40
2022-08-14T11:39:59.144Z,45.60
2022-08-14T11:42:58.784Z,46.80
2022-08-14T11:45:23.203Z,46.50
2022-08-14T11:48:13.090Z,46.40
2022-08-14T11:50:49.396Z,45.90
2022-08-14T11:53:31.383Z,45.90
2022-08-14T11:56:05.472Z,45.10
2022-08-14T11:58:38.240Z,44.90
2022-08-14T12:01:09.573Z,44.60
2022-08-14T12:03:52.164Z,44.40
2022-08-14T12:06:29.310Z,44.10
2022-08-14T12:09:03.054Z,44.70
2022-08-14T12:11:47.513Z,44.50
2022-08-14T12:14:29.097Z,43.90
2022-08-14T12:17:11.928Z,44.30
2022-08-14T12:19:54.247Z,43.60
2022-08-14T12:22:44.793Z,43.40
2022-08-14T12:25:19.672Z,42.60
2022-08-14T12:27:52.517Z,42.80
2022-08-14T12:30:43.118Z,42.10
2022-08-14T12:33:33.869Z,42.00
2022-08-14T12:36:08.851Z,42.40
2022-08-14T12:38:43.524Z,42.00
2022-08-14T12:41:22.016Z,42.30
2022-08-14T12:43:59.898Z,42.40
2022-08-14T12:46:33.815Z,42.60
2022-08-14T12:49:11.863Z,42.60
2022-08-14T12:51:44.832Z,42.70
2022-08-14T12:54:27.583Z,42.70
2022-08-14T12:57:19.804Z,42.50
2022-08-14T12:59:49.212Z,42.30
2022-08-14T13:02:26.982Z,42.20
2022-08-14T13:04:58.140Z,41.90
2022-08-14T13:07:32.746Z,41.70
2022-08-14T13:10:46.850Z,41.20
2022-08-14T13:13:12.519Z,41.50
2022-08-14T13:15:40.654Z,41.80
2022-08-14T13:18:10.620Z,41.60
2022-08-14T13:20:48.127Z,41.20
2022-08-14T13:23:30.364Z,40.90
2022-08-14T13:25:59.834Z,41.10
2022-08-14T13:28:32.776Z,41.20
2022-08-14T13:31:11.033Z,40.90
2022-08-14T13:33:40.888Z,40.80
2022-08-14T13:36:10.211Z,40.50
2022-08-14T13:38:52.329Z,40.40
2022-08-14T13:41:28.035Z,40.80
2022-08-14T13:44:03.429Z,40.60
2022-08-14T13:46:30.540Z,40.80
2022-08-14T13:49:01.578Z,40.80
2022-08-14T13:51:38.428Z,40.80
2022-08-14T13:54:10.879Z,40.50
2022-08-14T13:56:42.025Z,41.00
2022-08-14T13:59:10.519Z,40.30
2022-08-14T14:01:44.000Z,40.00
2022-08-14T14:04:19.967Z,39.80
2022-08-14T14:06:52.260Z,39.70
2022-08-14T14:09:32.394Z,39.50
2022-08-14T14:12:08.030Z,39.60
2022-08-14T14:14:56.522Z,39.90
2022-08-14T14:17:25.393Z,40.40
2022-08-14T14:19:58.631Z,39.90
2022-08-14T14:22:35.592Z,39.80
2022-08-14T14:25:22.190Z,39.60
2022-08-14T14:27:53.287Z,39.50
2022-08-14T14:30:46.564Z,39.80
2022-08-14T14:33:42.129Z,39.80
2022-08-14T14:36:04.970Z,40.00
2022-08-14T14:38:34.323Z,40.10
2022-08-14T14:41:05.609Z,40.20
2022-08-14T14:43:36.138Z,40.20
2022-08-14T14:46:09.640Z,40.50
2022-08-14T14:48:54.182Z,40.40
2022-08-14T14:51:22.251Z,40.50
2022-08-14T14:53:49.748Z,40.60
2022-08-14T14:56:50.580Z,40.70
2022-08-14T14:59:06.171Z,40.80
2022-08-14T15:01:37.015Z,40.90
2022-08-14T15:04:20.044Z,41.10
2022-08-14T15:06:50.035Z,41.20
2022-08-14T15:09:18.481Z,41.50
2022-08-14T15:11:47.714Z,41.50
2022-08-14T15:14:56.166Z,41.60
2022-08-14T15:17:03.002Z,41.70
2022-08-14T15:19:32.153Z,41.30
2022-08-14T15:21:59.415Z,41.30
2022-08-14T15:24:27.218Z,41.30
2022-08-14T15:26:58.520Z,40.90
2022-08-14T15:29:27.482Z,40.60
2022-08-14T15:31:54.742Z,40.40
2022-08-14T15:34:45.752Z,40.70
2022-08-14T15:37:12.654Z,40.70
2022-08-14T15:39:41.211Z,41.00
2022-08-14T15:42:14.478Z,40.90
2022-08-14T15:44:58.047Z,40.60
2022-08-14T15:47:31.454Z,40.80
2022-08-14T15:50:01.626Z,40.90
2022-08-14T15:52:37.398Z,40.70
2022-08-14T15:55:10.190Z,40.20
2022-08-14T15:58:02.381Z,40.60
2022-08-14T16:00:49.359Z,40.80
2022-08-14T16:03:25.327Z,40.60
2022-08-14T16:06:01.893Z,40.50
2022-08-14T16:08:30.849Z,40.40
2022-08-14T16:11:01.318Z,40.50
2022-08-14T16:13:41.183Z,40.50
2022-08-14T16:16:47.056Z,40.50
2022-08-14T16:19:11.459Z,40.30
2022-08-14T16:22:02.274Z,40.70
2022-08-14T16:24:33.360Z,40.70
2022-08-14T16:27:03.526Z,40.80
2022-08-14T16:29:36.351Z,41.00
2022-08-14T16:32:33.452Z,41.20
2022-08-14T16:34:57.349Z,41.30
2022-08-14T16:37:30.693Z,41.70
2022-08-14T16:40:00.730Z,42.50
2022-08-14T16:43:02.436Z,43.00
2022-08-14T16:45:26.533Z,43.30
2022-08-14T16:47:55.385Z,44.00
2022-08-14T16:50:40.442Z,44.90
2022-08-14T16:53:17.200Z,44.50
2022-08-14T16:55:50.995Z,44.70
2022-08-14T16:58:30.312Z,44.90
2022-08-14T17:01:25.115Z,45.20
2022-08-14T17:04:24.430Z,45.60
2022-08-14T17:06:56.014Z,45.70
2022-08-14T17:09:30.946Z,45.60
2022-08-14T17:12:28.956Z,45.90
2022-08-14T17:15:11.195Z,46.50
2022-08-14T17:17:57.481Z,46.40
2022-08-14T17:20:54.802Z,46.60
2022-08-14T17:23:14.941Z,46.70
2022-08-14T17:25:50.896Z,47.00
2022-08-14T17:28:52.462Z,47.70
2022-08-14T17:31:12.288Z,47.30
2022-08-14T17:33:44.687Z,47.40
2022-08-14T17:36:24.279Z,47.60
2022-08-14T17:39:13.315Z,47.80
2022-08-14T17:42:01.775Z,48.20
2022-08-14T17:44:45.637Z,48.20
2022-08-14T17:47:18.018Z,48.30
2022-08-14T17:49:52.243Z,48.70
2022-08-14T17:52:34.938Z,48.80
2022-08-14T17:55:12.735Z,48.70
2022-08-14T17:57:59.359Z,48.90
2022-08-14T18:00:28.571Z,48.90
2022-08-14T18:02:59.242Z,49.10
2022-08-14T18:06:08.646Z,49.20
2022-08-14T18:08:33.733Z,49.30
2022-08-14T18:11:03.804Z,49.40
2022-08-14T18:13:51.920Z,49.50
2022-08-14T18:16:23.537Z,49.70
2022-08-14T18:18:54.891Z,49.70
2022-08-14T18:21:56.881Z,49.90
2022-08-14T18:24:29.753Z,50.00
2022-08-14T18:27:15.104Z,50.00
2022-08-14T18:29:58.044Z,50.50
2022-08-14T18:32:28.087Z,50.40
2022-08-14T18:35:11.485Z,50.50
2022-08-14T18:37:42.818Z,50.70
2022-08-14T18:40:34.687Z,50.90
2022-08-14T18:43:05.151Z,50.90
2022-08-14T18:45:42.969Z,51.30
2022-08-14T18:48:20.990Z,51.50
2022-08-14T18:51:10.701Z,51.90
2022-08-14T18:53:57.169Z,52.00
2022-08-14T18:57:01.767Z,52.10
2022-08-14T18:59:40.239Z,52.70
2022-08-14T19:02:30.687Z,52.40
2022-08-14T19:05:02.463Z,52.90
2022-08-14T19:07:33.921Z,52.90
2022-08-14T19:10:07.200Z,53.20
2022-08-14T19:12:53.441Z,53.50
2022-08-14T19:15:26.097Z,53.80
2022-08-14T19:18:14.937Z,53.80
2022-08-14T19:20:49.212Z,53.90
2022-08-14T19:23:42.669Z,54.50
2022-08-14T19:26:35.349Z,54.60
2022-08-14T19:29:37.875Z,55.00
2022-08-14T19:32:40.205Z,55.20
2022-08-14T19:35:48.427Z,55.30
2022-08-14T19:38:52.135Z,55.80
2022-08-14T19:41:52.077Z,55.80
2022-08-14T19:44:31.651Z,55.80
2022-08-14T19:47:04.781Z,55.80
2022-08-14T19:50:09.025Z,56.10
2022-08-14T19:52:39.729Z,56.50
2022-08-14T19:55:20.279Z,56.90
2022-08-14T19:57:52.347Z,57.40
2022-08-14T20:00:29.450Z,57.20
2022-08-14T20:03:10.964Z,57.20
2022-08-14T20:05:45.802Z,57.80
2022-08-14T20:09:05.351Z,57.70
2022-08-14T20:11:43.325Z,57.70
2022-08-14T20:14:20.589Z,57.90
2022-08-14T20:17:04.957Z,58.20
2022-08-14T20:19:37.411Z,58.40
2022-08-14T20:22:36.565Z,58.20
2022-08-14T20:25:21.850Z,58.40
2022-08-14T20:27:59.568Z,58.70
2022-08-14T20:30:33.536Z,59.00
2022-08-14T20:33:14.280Z,58.90
2022-08-14T20:35:47.619Z,59.30
2022-08-14T20:38:30.438Z,59.40
2022-08-14T20:41:09.681Z,59.50
2022-08-14T20:43:59.487Z,59.70
2022-08-14T20:46:38.820Z,59.80
2022-08-14T20:49:19.283Z,60.00
2022-08-14T20:52:00.062Z,60.40
2022-08-14T20:54:37.061Z,60.60
2022-08-14T20:57:18.243Z,60.20
2022-08-14T20:59:57.397Z,60.50
2022-08-14T21:02:46.554Z,61.10
2022-08-14T21:05:34.193Z,61.10
2022-08-14T21:08:08.329Z,61.50
2022-08-14T21:10:44.023Z,61.30
2022-08-14T21:13:27.452Z,62.20
2022-08-14T21:16:34.612Z,61.50
2022-08-14T21:18:58.898Z,61.60
2022-08-14T21:21:41.851Z,61.40
2022-08-14T21:24:38.765Z,61.80
2022-08-14T21:27:12.837Z,61.90
2022-08-14T21:29:53.877Z,61.90
2022-08-14T21:32:34.661Z,61.90
2022-08-14T21:35:08.164Z,61.90
2022-08-14T21:38:01.039Z,62.20
2022-08-14T21:40:42.132Z,62.70
2022-08-14T21:43:18.169Z,62.60
2022-08-14T21:45:53.235Z,62.90
2022-08-14T21:48:29.264Z,62.90
2022-08-14T21:51:52.949Z,62.90
2022-08-14T21:53:58.595Z,63.20
2022-08-14T21:56:38.720Z,63.40
2022-08-14T21:59:18.421Z,63.70
2022-08-14T22:01:59.440Z,64.10
2022-08-14T22:04:40.591Z,63.90
2022-08-14T22:07:16.698Z,63.90
2022-08-14T22:09:45.701Z,64.90
2022-08-14T22:12:47.339Z,64.30
2022-08-14T22:15:17.026Z,64.30
2022-08-14T22:17:54.664Z,64.60
2022-08-14T22:20:28.957Z,65.00
2022-08-14T22:22:59.368Z,65.30
2022-08-14T22:25:33.114Z,65.50
2022-08-14T22:28:04.384Z,65.80
2022-08-14T22:30:33.752Z,66.00
2022-08-14T22:33:01.755Z,67.40
2022-08-14T22:35:29.911Z,66.90
2022-08-14T22:38:34.580Z,67.20
2022-08-14T22:41:07.858Z,67.40
2022-08-14T22:43:36.918Z,67.60
2022-08-14T22:46:15.124Z,68.00
2022-08-14T22:48:49.352Z,68.10
2022-08-14T22:51:21.804Z,68.30
2022-08-14T22:53:54.593Z,68.40
2022-08-14T22:56:30.128Z,68.40
2022-08-14T22:59:02.155Z,68.80
2022-08-14T23:01:55.775Z,69.50
2022-08-14T23:04:34.996Z,69.10
2022-08-14T23:07:22.473Z,68.60
2022-08-14T23:09:57.822Z,69.30
2022-08-14T23:12:54.190Z,69.20
2022-08-14T23:15:28.929Z,69.30
2022-08-14T23:17:57.854Z,69.50
2022-08-14T23:20:29.418Z,69.50
2022-08-14T23:22:58.134Z,69.70
2022-08-14T23:25:57.592Z,70.00
2022-08-14T23:28:34.256Z,70.00
2022-08-14T23:31:34.446Z,70.20
2022-08-14T23:34:08.971Z,70.50
2022-08-14T23:36:54.201Z,70.60
2022-08-14T23:39:30.215Z,71.10
2022-08-14T23:42:07.632Z,71.50
2022-08-14T23:44:38.186Z,71.70
2022-08-14T23:47:11.496Z,71.80
2022-08-14T23:50:00.410Z,72.10
2022-08-14T23:52:51.192Z,72.20
2022-08-14T23:55:22.981Z,72.30
2022-08-14T23:57:57.645Z,72.30
